Time;durP1;ratioP1;P1;durP2;ratioP2;P2;SDS_P1;SDS_P2;PMS_P1;PMS_P2;Temp;Humidity;BMP_temperature;BMP_pressure;BME280_temperature;BME280_humidity;BME280_pressure;Samples;Min_cycle;Max_cycle;Signal;HPM_P1;HPM_P2
2023/03/03 00:00:32;;;;;;;57.88;30.92;;;;;;;;;;5083666;28;20040;-78
2023/03/03 00:03:00;;;;;;;59.20;30.70;;;;;;;;;;5083684;28;20051;-78
2023/03/03 00:05:26;;;;;;;53.88;30.08;;;;;;;;;;5075466;28;20027;-77
2023/03/03 00:07:52;;;;;;;60.38;32.28;;;;;;;;;;5089726;28;20029;-80
2023/03/03 00:10:18;;;;;;;57.80;30.83;;;;;;;;;;5087747;28;20080;-77
2023/03/03 00:12:49;;;;;;;64.10;33.20;;;;;;;;;;5091401;28;20515;-77
2023/03/03 00:15:16;;;;;;;63.22;33.42;;;;;;;;;;5093232;28;20371;-77
2023/03/03 00:17:42;;;;;;;79.75;41.35;;;;;;;;;;5077791;28;20017;-76
2023/03/03 00:20:29;;;;;;;77.07;40.42;;;;;;;;;;5094421;28;20554;-79
2023/03/03 00:22:56;;;;;;;85.97;42.60;;;;;;;;;;5094197;28;20078;-79
2023/03/03 00:25:27;;;;;;;94.75;43.50;;;;;;;;;;5068886;28;20041;-76
2023/03/03 00:27:53;;;;;;;91.35;44.38;;;;;;;;;;5073332;28;20399;-76
2023/03/03 00:30:24;;;;;;;97.10;45.28;;;;;;;;;;5081997;28;20478;-76
2023/03/03 00:32:51;;;;;;;90.53;43.63;;;;;;;;;;5065369;28;20502;-77
2023/03/03 00:35:22;;;;;;;96.82;45.33;;;;;;;;;;5071237;28;20266;-76
2023/03/03 00:37:51;;;;;;;96.72;45.00;;;;;;;;;;5077923;28;20020;-76
2023/03/03 00:40:36;;;;;;;98.82;45.60;;;;;;;;;;5088279;28;20062;-77
2023/03/03 00:43:11;;;;;;;102.63;44.92;;;;;;;;;;5081217;28;20025;-76
2023/03/03 00:45:46;;;;;;;100.65;46.33;;;;;;;;;;5072834;28;20082;-76
2023/03/03 00:48:22;;;;;;;96.57;46.00;;;;;;;;;;5079757;28;20016;-76
2023/03/03 00:50:49;;;;;;;87.63;43.72;;;;;;;;;;5083440;28;20108;-76
2023/03/03 00:53:19;;;;;;;91.72;44.72;;;;;;;;;;5088493;28;20024;-76
2023/03/03 00:55:46;;;;;;;88.65;42.72;;;;;;;;;;5077365;28;20060;-76
2023/03/03 00:58:12;;;;;;;96.35;43.78;;;;;;;;;;5088119;28;20012;-76
2023/03/03 01:00:39;;;;;;;105.57;46.08;;;;;;;;;;5083658;28;20020;-76
2023/03/03 01:03:10;;;;;;;99.28;46.03;;;;;;;;;;5080897;28;20506;-76
2023/03/03 01:05:36;;;;;;;104.20;46.17;;;;;;;;;;5090868;28;20039;-76
2023/03/03 01:08:03;;;;;;;90.57;43.80;;;;;;;;;;5080889;28;20028;-76
2023/03/03 01:10:30;;;;;;;108.68;48.45;;;;;;;;;;5091421;28;20504;-77
2023/03/03 01:12:57;;;;;;;111.18;47.50;;;;;;;;;;5091643;28;20039;-76
2023/03/03 01:15:23;;;;;;;106.53;47.00;;;;;;;;;;5080684;28;20033;-76
2023/03/03 01:17:49;;;;;;;108.53;47.88;;;;;;;;;;5101869;28;20020;-78
2023/03/03 01:20:15;;;;;;;107.82;45.40;;;;;;;;;;5102396;28;20012;-77
2023/03/03 01:22:41;;;;;;;105.50;42.53;;;;;;;;;;5087548;28;20032;-77
2023/03/03 01:25:08;;;;;;;104.22;43.53;;;;;;;;;;5098433;28;20024;-78
2023/03/03 01:27:34;;;;;;;115.40;41.88;;;;;;;;;;5105198;28;20028;-77
2023/03/03 01:30:00;;;;;;;110.57;42.95;;;;;;;;;;5077362;28;20028;-77
2023/03/03 01:32:27;;;;;;;96.68;41.10;;;;;;;;;;5085415;28;20154;-77
2023/03/03 01:34:53;;;;;;;101.65;42.83;;;;;;;;;;5084632;28;20032;-77
2023/03/03 01:37:19;;;;;;;111.03;46.28;;;;;;;;;;5077894;28;20032;-77
2023/03/03 01:39:55;;;;;;;107.25;44.95;;;;;;;;;;5090395;28;20024;-77
2023/03/03 01:42:21;;;;;;;109.95;43.78;;;;;;;;;;5080553;28;20028;-77
2023/03/03 01:44:48;;;;;;;96.18;44.95;;;;;;;;;;5082984;28;20020;-77
2023/03/03 01:47:19;;;;;;;102.00;43.80;;;;;;;;;;5087580;28;20024;-77
2023/03/03 01:49:54;;;;;;;93.65;42.53;;;;;;;;;;5076936;28;20039;-77
2023/03/03 01:52:26;;;;;;;101.07;44.78;;;;;;;;;;5086177;28;20029;-77
2023/03/03 01:54:55;;;;;;;101.60;43.65;;;;;;;;;;5084053;28;20020;-76
2023/03/03 01:57:26;;;;;;;98.68;42.28;;;;;;;;;;5077316;28;20035;-76
2023/03/03 01:59:53;;;;;;;97.30;42.72;;;;;;;;;;5089391;28;20096;-75
2023/03/03 02:02:19;;;;;;;102.72;43.53;;;;;;;;;;5079298;28;20020;-76
2023/03/03 02:04:45;;;;;;;101.00;45.47;;;;;;;;;;5082178;28;20548;-76
2023/03/03 02:07:14;;;;;;;99.93;46.00;;;;;;;;;;5086492;28;20024;-76
2023/03/03 02:09:51;;;;;;;107.45;44.42;;;;;;;;;;5075732;28;20101;-75
2023/03/03 02:12:18;;;;;;;99.35;43.28;;;;;;;;;;5086286;28;20020;-76
2023/03/03 02:14:44;;;;;;;81.82;40.10;;;;;;;;;;5082586;28;20094;-75
2023/03/03 02:17:10;;;;;;;80.10;37.75;;;;;;;;;;5060531;28;20020;-75
2023/03/03 02:19:55;;;;;;;79.35;37.80;;;;;;;;;;5089381;28;20048;-76
2023/03/03 02:22:32;;;;;;;77.50;36.40;;;;;;;;;;5079610;28;20051;-76
2023/03/03 02:25:00;;;;;;;78.18;36.92;;;;;;;;;;5071698;28;20025;-75
2023/03/03 02:27:28;;;;;;;79.70;35.78;;;;;;;;;;5052957;28;20028;-76
2023/03/03 02:29:54;;;;;;;80.72;36.85;;;;;;;;;;5077001;28;20034;-75
2023/03/03 02:32:20;;;;;;;92.82;38.67;;;;;;;;;;5085731;28;20028;-76
2023/03/03 02:34:50;;;;;;;84.57;37.17;;;;;;;;;;5082793;28;20039;-75
2023/03/03 02:37:17;;;;;;;74.93;37.13;;;;;;;;;;5077543;28;20024;-75
2023/03/03 02:39:43;;;;;;;76.47;34.78;;;;;;;;;;5088642;28;20024;-76
2023/03/03 02:42:15;;;;;;;73.57;35.00;;;;;;;;;;5077358;28;20366;-76
2023/03/03 02:44:41;;;;;;;73.15;36.00;;;;;;;;;;5081775;28;20028;-76
2023/03/03 02:47:07;;;;;;;80.38;38.22;;;;;;;;;;5085527;28;20089;-76
2023/03/03 02:49:34;;;;;;;73.47;35.90;;;;;;;;;;5075302;28;20054;-76
2023/03/03 02:52:01;;;;;;;74.88;35.60;;;;;;;;;;5091807;28;20042;-76
2023/03/03 02:54:29;;;;;;;77.07;35.92;;;;;;;;;;5083668;28;20641;-76
2023/03/03 02:56:55;;;;;;;74.65;36.00;;;;;;;;;;5083283;28;20035;-76
2023/03/03 02:59:21;;;;;;;81.00;35.85;;;;;;;;;;5076096;28;20028;-75
2023/03/03 03:01:48;;;;;;;73.43;36.67;;;;;;;;;;5088251;28;20024;-75
2023/03/03 03:04:15;;;;;;;78.90;38.30;;;;;;;;;;5060290;28;20024;-76
2023/03/03 03:06:41;;;;;;;75.20;34.97;;;;;;;;;;5064192;28;20115;-76
2023/03/03 03:09:08;;;;;;;74.93;34.63;;;;;;;;;;5085170;28;20032;-78
2023/03/03 03:11:35;;;;;;;73.90;34.05;;;;;;;;;;5075225;28;20025;-75
2023/03/03 03:14:02;;;;;;;71.90;35.58;;;;;;;;;;5069094;28;20115;-75
2023/03/03 03:16:28;;;;;;;81.07;37.03;;;;;;;;;;5061576;28;20124;-76
2023/03/03 03:18:54;;;;;;;68.40;34.10;;;;;;;;;;5061625;28;20394;-76
2023/03/03 03:21:20;;;;;;;62.90;32.50;;;;;;;;;;5086978;28;20020;-77
2023/03/03 03:23:46;;;;;;;66.53;33.03;;;;;;;;;;5074947;28;20033;-77
2023/03/03 03:26:12;;;;;;;67.18;33.15;;;;;;;;;;5078057;28;20032;-77
2023/03/03 03:28:38;;;;;;;64.90;31.42;;;;;;;;;;5081699;28;20123;-76
2023/03/03 03:31:05;;;;;;;65.30;30.83;;;;;;;;;;5084971;28;20050;-77
2023/03/03 03:33:31;;;;;;;66.40;32.42;;;;;;;;;;5074554;28;20036;-76
2023/03/03 03:35:57;;;;;;;63.42;30.25;;;;;;;;;;5087452;28;20492;-75
2023/03/03 03:38:25;;;;;;;63.72;30.58;;;;;;;;;;5078329;28;20028;-74
2023/03/03 03:40:52;;;;;;;67.88;33.72;;;;;;;;;;5079972;28;20039;-75
2023/03/03 03:43:18;;;;;;;69.07;32.13;;;;;;;;;;5086215;28;20073;-75
2023/03/03 03:45:44;;;;;;;72.00;32.78;;;;;;;;;;5074475;28;20029;-75
2023/03/03 03:48:11;;;;;;;71.10;32.78;;;;;;;;;;5085423;28;20393;-75
2023/03/03 03:50:37;;;;;;;69.10;34.60;;;;;;;;;;5080350;28;20510;-75
2023/03/03 03:53:03;;;;;;;67.47;33.38;;;;;;;;;;5078282;28;20044;-75
2023/03/03 03:55:29;;;;;;;67.43;33.13;;;;;;;;;;5087880;28;20646;-76
2023/03/03 03:57:56;;;;;;;76.45;34.00;;;;;;;;;;5061349;28;20020;-75
2023/03/03 04:00:22;;;;;;;66.35;32.03;;;;;;;;;;5088009;28;20042;-75
2023/03/03 04:02:48;;;;;;;77.85;33.47;;;;;;;;;;5086125;28;20098;-76
2023/03/03 04:05:14;;;;;;;69.07;32.72;;;;;;;;;;5081046;28;20098;-77
2023/03/03 04:07:40;;;;;;;69.43;32.75;;;;;;;;;;5094545;28;20024;-78
2023/03/03 04:10:07;;;;;;;65.05;31.95;;;;;;;;;;5082345;28;20063;-78
2023/03/03 04:12:37;;;;;;;66.55;32.20;;;;;;;;;;5088465;28;20478;-78
2023/03/03 04:15:04;;;;;;;62.70;30.90;;;;;;;;;;5089705;28;20028;-77
2023/03/03 04:17:30;;;;;;;69.20;32.80;;;;;;;;;;5078997;28;20089;-78
2023/03/03 04:19:56;;;;;;;66.00;31.83;;;;;;;;;;5093216;28;20024;-77
2023/03/03 04:22:22;;;;;;;69.47;32.38;;;;;;;;;;5083534;28;20539;-78
2023/03/03 04:24:48;;;;;;;70.22;33.33;;;;;;;;;;5086799;28;20082;-76
2023/03/03 04:27:15;;;;;;;74.55;33.78;;;;;;;;;;5088907;28;20032;-76
2023/03/03 04:29:41;;;;;;;68.40;32.85;;;;;;;;;;5078381;28;20040;-77
2023/03/03 04:32:07;;;;;;;71.55;32.97;;;;;;;;;;5089824;28;20389;-77
2023/03/03 04:34:33;;;;;;;69.65;33.60;;;;;;;;;;5083610;28;20073;-77
2023/03/03 04:37:00;;;;;;;76.57;35.53;;;;;;;;;;5082301;28;20088;-76
2023/03/03 04:39:27;;;;;;;76.13;34.78;;;;;;;;;;5090905;28;20028;-76
2023/03/03 04:41:53;;;;;;;68.55;32.28;;;;;;;;;;5059562;28;20097;-75
2023/03/03 04:44:19;;;;;;;77.13;33.60;;;;;;;;;;5087542;28;20037;-75
2023/03/03 04:46:45;;;;;;;75.03;35.10;;;;;;;;;;5084246;28;20028;-76
2023/03/03 04:49:11;;;;;;;76.18;35.03;;;;;;;;;;5080207;28;20025;-76
2023/03/03 04:51:37;;;;;;;82.18;35.17;;;;;;;;;;5090736;28;20024;-76
2023/03/03 04:54:03;;;;;;;83.45;36.45;;;;;;;;;;5060936;28;20020;-76
2023/03/03 04:56:30;;;;;;;77.53;34.20;;;;;;;;;;5085737;28;20029;-77
2023/03/03 04:58:56;;;;;;;78.28;34.28;;;;;;;;;;5067598;28;20021;-77
2023/03/03 05:01:22;;;;;;;83.38;36.25;;;;;;;;;;5078421;28;20021;-77
2023/03/03 05:03:48;;;;;;;83.00;35.63;;;;;;;;;;5090956;28;20139;-76
2023/03/03 05:06:15;;;;;;;83.57;34.53;;;;;;;;;;5079717;28;20454;-77
2023/03/03 05:08:42;;;;;;;89.80;36.00;;;;;;;;;;5065465;28;20037;-76
2023/03/03 05:11:08;;;;;;;90.30;35.80;;;;;;;;;;5087257;28;20038;-77
2023/03/03 05:13:34;;;;;;;89.68;36.42;;;;;;;;;;5078426;28;20025;-77
2023/03/03 05:16:00;;;;;;;88.32;37.30;;;;;;;;;;5090541;28;20021;-77
2023/03/03 05:18:26;;;;;;;90.88;36.97;;;;;;;;;;5081893;28;20031;-77
2023/03/03 05:20:53;;;;;;;83.10;36.05;;;;;;;;;;5083790;28;20432;-77
2023/03/03 05:23:19;;;;;;;88.68;35.75;;;;;;;;;;5091966;28;20024;-78
2023/03/03 05:25:47;;;;;;;89.60;35.70;;;;;;;;;;5066402;28;20398;-78
2023/03/03 05:28:13;;;;;;;86.63;35.00;;;;;;;;;;5065446;28;20024;-77
2023/03/03 05:30:39;;;;;;;75.20;33.28;;;;;;;;;;5089916;28;20030;-77
2023/03/03 05:33:06;;;;;;;81.63;35.25;;;;;;;;;;5092083;28;20035;-75
2023/03/03 05:35:32;;;;;;;84.38;34.78;;;;;;;;;;5086784;28;20037;-76
2023/03/03 05:37:58;;;;;;;83.72;34.53;;;;;;;;;;5104554;28;20027;-77
2023/03/03 05:40:25;;;;;;;83.28;34.45;;;;;;;;;;5096576;28;20020;-76
2023/03/03 05:42:51;;;;;;;90.35;36.25;;;;;;;;;;5080865;28;20394;-76
2023/03/03 05:45:20;;;;;;;90.32;37.40;;;;;;;;;;5101172;28;20069;-75
2023/03/03 05:47:46;;;;;;;84.53;35.10;;;;;;;;;;5058533;28;20083;-76
2023/03/03 05:50:12;;;;;;;82.28;34.92;;;;;;;;;;5087533;28;20024;-77
2023/03/03 05:52:38;;;;;;;90.72;35.15;;;;;;;;;;5064183;28;20383;-78
2023/03/03 05:55:04;;;;;;;80.57;34.40;;;;;;;;;;5079646;28;20044;-77
2023/03/03 05:57:30;;;;;;;87.78;33.90;;;;;;;;;;5070833;28;20597;-77
2023/03/03 05:59:56;;;;;;;78.75;36.30;;;;;;;;;;5075995;28;20020;-77
2023/03/03 06:02:22;;;;;;;77.13;33.50;;;;;;;;;;5067399;28;20032;-76
2023/03/03 06:04:48;;;;;;;84.80;35.38;;;;;;;;;;5083876;28;20027;-76
2023/03/03 06:07:14;;;;;;;82.40;35.65;;;;;;;;;;5078406;28;20017;-76
2023/03/03 06:09:40;;;;;;;79.07;34.60;;;;;;;;;;5071421;28;20528;-76
2023/03/03 06:12:06;;;;;;;84.85;36.00;;;;;;;;;;5077711;28;20516;-76
2023/03/03 06:14:32;;;;;;;83.85;34.67;;;;;;;;;;5083711;28;20440;-76
2023/03/03 06:17:00;;;;;;;85.22;34.40;;;;;;;;;;5084922;28;20066;-75
2023/03/03 06:19:26;;;;;;;94.82;36.75;;;;;;;;;;5075898;28;20021;-77
2023/03/03 06:21:52;;;;;;;82.00;35.40;;;;;;;;;;5090045;28;20390;-77
2023/03/03 06:24:18;;;;;;;79.93;33.63;;;;;;;;;;5075581;28;20016;-76
2023/03/03 06:26:44;;;;;;;83.82;34.22;;;;;;;;;;5084905;28;20032;-78
2023/03/03 06:29:10;;;;;;;73.90;32.90;;;;;;;;;;5078356;28;20024;-78
2023/03/03 06:31:36;;;;;;;64.93;29.52;;;;;;;;;;5089394;28;20370;-79
2023/03/03 06:34:02;;;;;;;59.22;28.88;;;;;;;;;;5081158;28;20016;-78
2023/03/03 06:36:28;;;;;;;62.05;29.50;;;;;;;;;;5087981;28;20017;-78
2023/03/03 06:38:54;;;;;;;58.05;28.33;;;;;;;;;;5089703;28;20016;-79
2023/03/03 06:41:20;;;;;;;61.08;29.50;;;;;;;;;;5082260;28;20032;-79
2023/03/03 06:43:46;;;;;;;58.53;29.10;;;;;;;;;;5092101;28;20035;-80
2023/03/03 06:46:12;;;;;;;67.30;30.92;;;;;;;;;;5079035;28;20030;-78
2023/03/03 06:48:39;;;;;;;56.65;29.23;;;;;;;;;;5094491;28;20028;-79
2023/03/03 06:51:14;;;;;;;64.15;30.52;;;;;;;;;;5061716;28;20169;-77
2023/03/03 06:53:40;;;;;;;55.72;27.48;;;;;;;;;;5088752;28;20161;-78
2023/03/03 06:56:08;;;;;;;64.75;30.90;;;;;;;;;;5077039;28;20410;-79
2023/03/03 06:58:34;;;;;;;63.47;30.55;;;;;;;;;;5083383;28;20588;-78
2023/03/03 07:01:01;;;;;;;61.35;28.15;;;;;;;;;;5078807;28;20054;-78
2023/03/03 07:03:36;;;;;;;60.65;29.88;;;;;;;;;;5079891;28;20038;-79
2023/03/03 07:06:08;;;;;;;64.30;30.35;;;;;;;;;;5060349;28;20508;-78
2023/03/03 07:08:34;;;;;;;62.63;29.65;;;;;;;;;;5071068;28;20032;-77
2023/03/03 07:11:01;;;;;;;68.53;30.35;;;;;;;;;;5083233;28;20034;-78
2023/03/03 07:13:28;;;;;;;65.03;29.98;;;;;;;;;;5073964;28;20070;-78
2023/03/03 07:15:58;;;;;;;67.53;29.50;;;;;;;;;;5091905;28;20539;-78
2023/03/03 07:18:36;;;;;;;66.45;29.15;;;;;;;;;;5084516;28;20029;-76
2023/03/03 07:21:18;;;;;;;67.72;28.92;;;;;;;;;;5084626;28;20111;-78
2023/03/03 07:23:43;;;;;;;;;;;;;;;;;;5075953;28;20103;-78
2023/03/03 07:26:13;;;;;;;68.32;28.83;;;;;;;;;;5060515;28;19946;-77
2023/03/03 07:28:59;;;;;;;66.72;29.55;;;;;;;;;;5082600;28;20024;-77
2023/03/03 07:31:39;;;;;;;60.15;27.77;;;;;;;;;;5077764;28;20107;-78
2023/03/03 07:34:21;;;;;;;60.90;28.95;;;;;;;;;;5065526;28;20505;-76
2023/03/03 07:36:48;;;;;;;60.72;27.75;;;;;;;;;;5086137;28;20035;-78
2023/03/03 07:39:23;;;;;;;63.17;27.27;;;;;;;;;;5070903;28;20020;-78
2023/03/03 07:41:50;;;;;;;61.25;28.15;;;;;;;;;;5090212;28;20482;-77
2023/03/03 07:44:21;;;;;;;60.65;27.15;;;;;;;;;;5080006;28;20020;-76
2023/03/03 07:46:48;;;;;;;61.75;26.60;;;;;;;;;;5084455;28;20021;-80
2023/03/03 07:49:22;;;;;;;60.72;26.30;;;;;;;;;;5069506;28;20408;-76
2023/03/03 07:51:51;;;;;;;60.20;23.92;;;;;;;;;;5058989;28;20095;-77
2023/03/03 07:54:17;;;;;;;59.75;26.52;;;;;;;;;;5087620;28;20020;-77
2023/03/03 07:56:44;;;;;;;62.72;26.10;;;;;;;;;;5085029;28;20431;-77
2023/03/03 07:59:24;;;;;;;60.17;26.48;;;;;;;;;;5081214;28;20023;-77
2023/03/03 08:01:52;;;;;;;65.10;25.10;;;;;;;;;;5091952;28;20032;-74
2023/03/03 08:04:18;;;;;;;63.85;25.65;;;;;;;;;;5081655;28;20021;-77
2023/03/03 08:06:45;;;;;;;55.17;24.80;;;;;;;;;;5085771;28;20021;-77
2023/03/03 08:09:11;;;;;;;59.75;24.75;;;;;;;;;;5090171;28;20028;-77
2023/03/03 08:11:47;;;;;;;60.38;25.92;;;;;;;;;;5079859;28;20021;-78
2023/03/03 08:14:15;;;;;;;53.25;25.17;;;;;;;;;;5090758;28;20021;-77
2023/03/03 08:16:41;;;;;;;55.08;25.05;;;;;;;;;;5086770;28;20107;-79
2023/03/03 08:19:07;;;;;;;50.42;24.20;;;;;;;;;;5075187;28;20583;-79
2023/03/03 08:21:35;;;;;;;50.47;24.58;;;;;;;;;;5091420;28;20214;-79
2023/03/03 08:24:01;;;;;;;50.65;25.25;;;;;;;;;;5078183;28;20423;-78
2023/03/03 08:26:27;;;;;;;51.00;22.98;;;;;;;;;;5063377;28;20115;-78
2023/03/03 08:28:54;;;;;;;47.60;24.20;;;;;;;;;;5081728;28;20394;-77
2023/03/03 08:31:23;;;;;;;50.17;24.75;;;;;;;;;;5088806;28;20107;-76
2023/03/03 08:33:49;;;;;;;51.65;23.15;;;;;;;;;;5077268;28;20025;-76
2023/03/03 08:36:57;;;;;;;48.72;23.67;;;;;;;;;;5063038;22;20059;-75
2023/03/03 08:39:38;;;;;;;44.35;21.90;;;;;;;;;;5038678;28;20025;-75
2023/03/03 08:42:04;;;;;;;30.65;15.60;;;;;;;;;;5023130;28;20025;-77
2023/03/03 08:44:30;;;;;;;46.63;22.75;;;;;;;;;;5046614;28;20033;-76
2023/03/03 08:46:56;;;;;;;42.42;20.42;;;;;;;;;;5046645;28;20028;-76
2023/03/03 08:49:22;;;;;;;38.00;19.52;;;;;;;;;;5043214;28;20021;-76
2023/03/03 08:51:48;;;;;;;37.75;20.20;;;;;;;;;;5051890;28;20025;-75
2023/03/03 08:54:14;;;;;;;41.60;20.17;;;;;;;;;;5040809;28;20017;-77
2023/03/03 08:56:40;;;;;;;44.78;20.80;;;;;;;;;;5045090;28;20479;-77
2023/03/03 08:59:05;;;;;;;42.88;21.50;;;;;;;;;;5047643;28;20184;-75
2023/03/03 09:01:32;;;;;;;46.65;20.15;;;;;;;;;;5037603;28;20028;-75
2023/03/03 09:03:58;;;;;;;42.90;21.58;;;;;;;;;;5033147;28;20030;-76
2023/03/03 09:06:24;;;;;;;50.08;20.77;;;;;;;;;;5042239;28;20086;-75
2023/03/03 09:08:50;;;;;;;42.17;20.35;;;;;;;;;;5043277;28;20030;-77
2023/03/03 09:11:21;;;;;;;43.83;20.95;;;;;;;;;;5049042;28;20033;-77
2023/03/03 09:13:52;;;;;;;35.10;15.70;;;;;;;;;;5019427;28;20436;-75
2023/03/03 09:16:20;;;;;;;49.80;23.08;;;;;;;;;;5046968;28;20068;-76
2023/03/03 09:18:46;;;;;;;50.20;23.88;;;;;;;;;;5044244;28;20025;-77
2023/03/03 09:21:21;;;;;;;47.85;22.30;;;;;;;;;;5039396;28;20499;-77
2023/03/03 09:23:54;;;;;;;47.05;22.00;;;;;;;;;;5049921;28;20293;-76
2023/03/03 09:26:39;;;;;;;47.47;22.73;;;;;;;;;;5027569;28;20021;-76
2023/03/03 09:29:07;;;;;;;48.38;21.00;;;;;;;;;;5039277;28;20033;-76
2023/03/03 09:31:51;;;;;;;50.22;23.35;;;;;;;;;;5019244;28;20079;-76
2023/03/03 09:34:22;;;;;;;37.00;17.35;;;;;;;;;;5046711;28;20017;-75
2023/03/03 09:36:49;;;;;;;28.60;16.08;;;;;;;;;;5044074;28;20029;-76
2023/03/03 09:39:20;;;;;;;28.83;15.20;;;;;;;;;;5038657;28;20033;-76
2023/03/03 09:42:21;;;;;;;29.00;14.77;;;;;;;;;;5031521;28;20021;-76
2023/03/03 09:44:48;;;;;;;;;;;;;;;;;;4934577;29;20039;-77
2023/03/03 09:47:20;;;;;;;22.98;13.82;;;;;;;;;;5027254;28;19905;-78
2023/03/03 09:49:56;;;;;;;25.95;14.82;;;;;;;;;;5018857;28;20032;-78
2023/03/03 09:52:25;;;;;;;22.27;14.15;;;;;;;;;;5045756;28;20069;-76
2023/03/03 09:54:51;;;;;;;25.88;13.38;;;;;;;;;;5044164;28;20068;-76
2023/03/03 09:57:21;;;;;;;24.75;13.23;;;;;;;;;;5038145;28;20100;-77
2023/03/03 09:59:50;;;;;;;26.20;14.38;;;;;;;;;;5049606;28;20378;-78
2023/03/03 10:02:25;;;;;;;21.98;12.48;;;;;;;;;;5039333;28;20049;-74
2023/03/03 10:04:54;;;;;;;21.45;12.60;;;;;;;;;;5041470;28;20021;-76
2023/03/03 10:07:20;;;;;;;22.80;12.35;;;;;;;;;;5047561;28;20450;-76
2023/03/03 10:09:46;;;;;;;23.17;11.60;;;;;;;;;;5035963;28;20054;-75
2023/03/03 10:12:31;;;;;;;21.48;11.65;;;;;;;;;;5046888;28;20026;-74
2023/03/03 10:14:57;;;;;;;19.35;11.32;;;;;;;;;;5044536;28;20025;-78
2023/03/03 10:17:41;;;;;;;18.40;10.02;;;;;;;;;;5036832;28;20542;-75
2023/03/03 10:20:15;;;;;;;15.60;9.65;;;;;;;;;;5023263;28;20100;-76
2023/03/03 10:22:47;;;;;;;16.52;9.48;;;;;;;;;;5042809;28;20026;-77
2023/03/03 10:25:17;;;;;;;16.63;9.80;;;;;;;;;;5035268;28;20057;-75
2023/03/03 10:27:43;;;;;;;16.52;9.10;;;;;;;;;;5048437;28;20028;-78
2023/03/03 10:30:17;;;;;;;15.45;8.80;;;;;;;;;;5019819;28;20021;-77
2023/03/03 10:32:48;;;;;;;12.40;7.80;;;;;;;;;;5042574;28;20030;-75
2023/03/03 10:35:18;;;;;;;15.18;8.52;;;;;;;;;;5046541;28;20017;-76
2023/03/03 10:38:04;;;;;;;13.88;8.02;;;;;;;;;;5035239;28;20060;-76
2023/03/03 10:40:34;;;;;;;14.82;8.00;;;;;;;;;;5043844;28;20021;-76
2023/03/03 10:43:09;;;;;;;11.90;7.50;;;;;;;;;;5044273;28;20565;-77
2023/03/03 10:45:41;;;;;;;13.30;8.18;;;;;;;;;;5036607;28;20044;-77
2023/03/03 10:48:15;;;;;;;12.32;7.35;;;;;;;;;;5048261;28;20546;-77
2023/03/03 10:50:58;;;;;;;10.55;6.70;;;;;;;;;;5043634;28;20056;-77
2023/03/03 10:53:31;;;;;;;11.23;7.13;;;;;;;;;;5039118;28;20033;-77
2023/03/03 10:56:17;;;;;;;11.48;6.53;;;;;;;;;;5025902;28;20020;-76
2023/03/03 10:58:53;;;;;;;12.32;7.03;;;;;;;;;;5029793;28;20052;-77
2023/03/03 11:01:37;;;;;;;12.40;6.85;;;;;;;;;;5042126;28;20028;-77
2023/03/03 11:04:06;;;;;;;12.55;7.45;;;;;;;;;;5020959;28;20107;-76
2023/03/03 11:06:39;;;;;;;12.27;7.28;;;;;;;;;;5042499;28;20107;-75
2023/03/03 11:09:08;;;;;;;9.32;6.15;;;;;;;;;;5026650;28;20028;-73
2023/03/03 11:11:34;;;;;;;10.15;6.45;;;;;;;;;;5034964;28;20033;-76
2023/03/03 11:14:00;;;;;;;11.00;6.65;;;;;;;;;;5029253;28;20112;-76
2023/03/03 11:16:34;;;;;;;11.32;7.03;;;;;;;;;;5039057;28;20083;-75
2023/03/03 11:19:05;;;;;;;11.05;6.60;;;;;;;;;;5021041;28;20105;-75
2023/03/03 11:21:34;;;;;;;10.18;6.28;;;;;;;;;;5048241;28;20031;-75
2023/03/03 11:24:04;;;;;;;10.95;6.60;;;;;;;;;;5035275;28;20040;-77
2023/03/03 11:26:30;;;;;;;11.93;7.15;;;;;;;;;;5013019;28;20326;-77
2023/03/03 11:29:11;;;;;;;14.23;8.23;;;;;;;;;;5030141;28;20487;-76
2023/03/03 11:31:46;;;;;;;10.80;6.72;;;;;;;;;;5031574;28;20037;-75
2023/03/03 11:34:35;;;;;;;12.70;7.85;;;;;;;;;;5030489;28;20057;-76
2023/03/03 11:37:06;;;;;;;11.13;6.97;;;;;;;;;;4985272;28;20040;-77
2023/03/03 11:39:32;;;;;;;10.60;6.97;;;;;;;;;;5016383;28;20054;-76
2023/03/03 11:41:59;;;;;;;13.27;7.32;;;;;;;;;;5015125;28;20049;-76
2023/03/03 11:44:32;;;;;;;11.90;7.57;;;;;;;;;;5031227;28;20032;-76
2023/03/03 11:47:00;;;;;;;10.25;6.85;;;;;;;;;;5031063;28;20571;-76
2023/03/03 11:49:35;;;;;;;11.23;7.28;;;;;;;;;;5013737;28;20025;-75
2023/03/03 11:52:01;;;;;;;11.70;7.43;;;;;;;;;;5031539;28;20232;-74
2023/03/03 11:54:30;;;;;;;12.00;7.78;;;;;;;;;;5031280;28;20349;-76
2023/03/03 11:57:26;;;;;;;11.50;7.63;;;;;;;;;;5030932;28;20575;-76
2023/03/03 12:00:01;;;;;;;10.57;7.00;;;;;;;;;;4943644;28;20514;-76
2023/03/03 12:03:00;;;;;;;13.35;7.25;;;;;;;;;;5031201;28;20029;-76
2023/03/03 12:05:29;;;;;;;15.65;8.77;;;;;;;;;;4977636;28;20511;-74
2023/03/03 12:08:00;;;;;;;12.50;7.30;;;;;;;;;;5013072;28;20074;-76
2023/03/03 12:10:33;;;;;;;13.65;7.90;;;;;;;;;;5031058;28;20032;-73
2023/03/03 12:13:35;;;;;;;12.38;7.10;;;;;;;;;;5030965;28;20022;-75
2023/03/03 12:16:01;;;;;;;12.43;7.07;;;;;;;;;;4932005;29;20527;-73
2023/03/03 12:18:27;;;;;;;13.02;7.60;;;;;;;;;;5013335;28;20034;-74
2023/03/03 12:20:56;;;;;;;14.38;7.20;;;;;;;;;;5034744;28;20140;-75
2023/03/03 12:23:34;;;;;;;12.45;7.20;;;;;;;;;;5034662;28;20041;-77
2023/03/03 12:26:00;;;;;;;12.90;6.72;;;;;;;;;;5034723;28;20557;-75
2023/03/03 12:28:49;;;;;;;10.82;6.90;;;;;;;;;;5034554;28;20343;-75
2023/03/03 12:31:22;;;;;;;10.45;6.53;;;;;;;;;;5016877;28;20021;-73
2023/03/03 12:33:52;;;;;;;12.73;6.97;;;;;;;;;;5016628;28;20036;-74
2023/03/03 12:36:27;;;;;;;8.60;5.10;;;;;;;;;;5016603;28;20030;-75
2023/03/03 12:38:58;;;;;;;10.35;6.32;;;;;;;;;;5034229;28;20391;-75
2023/03/03 12:41:39;;;;;;;11.27;6.20;;;;;;;;;;5034506;28;20017;-75
2023/03/03 12:44:05;;;;;;;;;;;;;;;;;;5034485;28;20365;-75
2023/03/03 12:46:31;;;;;;;8.93;5.68;;;;;;;;;;5034134;28;19912;-75
2023/03/03 12:48:57;;;;;;;9.77;6.38;;;;;;;;;;5034399;28;20352;-76
2023/03/03 12:51:38;;;;;;;11.15;5.82;;;;;;;;;;5034660;28;20028;-75
2023/03/03 12:54:04;;;;;;;10.65;6.25;;;;;;;;;;5034896;28;20447;-75
2023/03/03 12:56:34;;;;;;;11.68;7.03;;;;;;;;;;5034683;28;20026;-75
2023/03/03 12:59:04;;;;;;;9.83;6.43;;;;;;;;;;5034112;28;20104;-75
2023/03/03 13:01:36;;;;;;;10.45;6.45;;;;;;;;;;5034357;28;20264;-77
2023/03/03 13:04:13;;;;;;;12.38;7.03;;;;;;;;;;5034255;28;20030;-75
2023/03/03 13:06:39;;;;;;;9.05;5.82;;;;;;;;;;5038256;28;20053;-76
2023/03/03 13:09:24;;;;;;;11.70;5.70;;;;;;;;;;5033568;28;20053;-75
2023/03/03 13:12:08;;;;;;;9.27;5.25;;;;;;;;;;5034414;28;20044;-76
2023/03/03 13:14:42;;;;;;;10.90;5.20;;;;;;;;;;5015990;28;20033;-75
2023/03/03 13:17:15;;;;;;;8.77;5.95;;;;;;;;;;5033536;28;20068;-75
2023/03/03 13:19:48;;;;;;;10.20;5.97;;;;;;;;;;5033937;28;20034;-75
2023/03/03 13:22:20;;;;;;;17.17;5.65;;;;;;;;;;5033726;28;20029;-75
2023/03/03 13:24:49;;;;;;;10.82;5.93;;;;;;;;;;5033714;28;20052;-76
2023/03/03 13:27:20;;;;;;;8.93;5.53;;;;;;;;;;5032881;28;20026;-76
2023/03/03 13:29:54;;;;;;;7.93;4.88;;;;;;;;;;5033254;28;20033;-76
2023/03/03 13:32:22;;;;;;;10.35;5.32;;;;;;;;;;5033617;28;20048;-76
2023/03/03 13:35:02;;;;;;;12.48;6.72;;;;;;;;;;5033233;28;20041;-76
2023/03/03 13:37:35;;;;;;;9.05;5.43;;;;;;;;;;5032906;28;20037;-76
2023/03/03 13:40:07;;;;;;;9.27;6.22;;;;;;;;;;5033339;28;20033;-76
2023/03/03 13:42:48;;;;;;;8.15;5.45;;;;;;;;;;5033201;28;20495;-76
2023/03/03 13:45:17;;;;;;;8.45;5.55;;;;;;;;;;5033735;28;20108;-76
2023/03/03 13:48:02;;;;;;;10.15;6.35;;;;;;;;;;5032689;28;20048;-76
2023/03/03 13:50:46;;;;;;;16.98;5.55;;;;;;;;;;5033330;28;20053;-76
2023/03/03 13:53:51;;;;;;;16.17;6.60;;;;;;;;;;5033076;28;20039;-75
2023/03/03 13:56:28;;;;;;;12.45;6.07;;;;;;;;;;4933356;29;20054;-76
2023/03/03 13:59:05;;;;;;;10.25;6.20;;;;;;;;;;4933146;29;20031;-76
2023/03/03 14:01:44;;;;;;;11.77;6.85;;;;;;;;;;4979053;28;20053;-76
2023/03/03 14:04:16;;;;;;;12.40;6.80;;;;;;;;;;5032825;28;20029;-75
2023/03/03 14:06:42;;;;;;;12.13;6.47;;;;;;;;;;5032699;28;20071;-75
2023/03/03 14:09:14;;;;;;;13.68;6.43;;;;;;;;;;5032663;28;20036;-74
2023/03/03 14:11:49;;;;;;;9.88;5.90;;;;;;;;;;5032976;28;20087;-76
2023/03/03 14:14:15;;;;;;;9.50;6.35;;;;;;;;;;5032715;28;20028;-77
2023/03/03 14:16:41;;;;;;;10.90;6.10;;;;;;;;;;5032829;28;20022;-76
2023/03/03 14:19:19;;;;;;;10.98;6.93;;;;;;;;;;5032180;28;20049;-76
2023/03/03 14:22:04;;;;;;;12.82;6.78;;;;;;;;;;5014228;28;20018;-76
2023/03/03 14:24:31;;;;;;;13.95;6.57;;;;;;;;;;5032720;28;20030;-75
2023/03/03 14:26:58;;;;;;;17.15;7.82;;;;;;;;;;5031824;28;20121;-76
2023/03/03 14:29:27;;;;;;;10.85;6.72;;;;;;;;;;5032409;28;20512;-77
2023/03/03 14:32:00;;;;;;;11.25;6.65;;;;;;;;;;5032734;28;20080;-76
2023/03/03 14:34:32;;;;;;;13.32;7.40;;;;;;;;;;5014229;28;20033;-76
2023/03/03 14:37:17;;;;;;;12.23;6.50;;;;;;;;;;5031782;28;20033;-73